sensor_id;sensor_type;location;lat;lon;timestamp;P1;durP1;ratioP1;P2;durP2;ratioP2
18455;SDS011;9357;49.900;8.208;2023-02-04T00:01:16;12.18;;;3.67;;
18455;SDS011;9357;49.900;8.208;2023-02-04T00:02:48;13.50;;;3.80;;
18455;SDS011;9357;49.900;8.208;2023-02-04T00:04:21;12.70;;;3.88;;
18455;SDS011;9357;49.900;8.208;2023-02-04T00:05:54;11.98;;;3.85;;
18455;SDS011;9357;49.900;8.208;2023-02-04T00:07:27;12.73;;;3.38;;
18455;SDS011;9357;49.900;8.208;2023-02-04T00:08:59;16.02;;;3.95;;
18455;SDS011;9357;49.900;8.208;2023-02-04T00:10:32;12.55;;;3.67;;
18455;SDS011;9357;49.900;8.208;2023-02-04T00:12:05;14.38;;;4.40;;
18455;SDS011;9357;49.900;8.208;2023-02-04T00:13:40;12.52;;;4.18;;
18455;SDS011;9357;49.900;8.208;2023-02-04T00:15:13;15.25;;;4.07;;
18455;SDS011;9357;49.900;8.208;2023-02-04T00:16:47;13.98;;;4.00;;
18455;SDS011;9357;49.900;8.208;2023-02-04T00:18:20;9.15;;;3.40;;
18455;SDS011;9357;49.900;8.208;2023-02-04T00:19:53;9.02;;;3.63;;
18455;SDS011;9357;49.900;8.208;2023-02-04T00:21:25;17.08;;;4.40;;
18455;SDS011;9357;49.900;8.208;2023-02-04T00:22:57;13.80;;;3.83;;
18455;SDS011;9357;49.900;8.208;2023-02-04T00:24:30;10.77;;;4.20;;
18455;SDS011;9357;49.900;8.208;2023-02-04T00:26:02;12.55;;;4.13;;
18455;SDS011;9357;49.900;8.208;2023-02-04T00:27:35;13.45;;;4.25;;
18455;SDS011;9357;49.900;8.208;2023-02-04T00:29:08;13.98;;;3.78;;
18455;SDS011;9357;49.900;8.208;2023-02-04T00:30:40;15.93;;;4.28;;
18455;SDS011;9357;49.900;8.208;2023-02-04T00:32:14;12.45;;;4.05;;
18455;SDS011;9357;49.900;8.208;2023-02-04T00:33:47;12.05;;;3.80;;
18455;SDS011;9357;49.900;8.208;2023-02-04T00:35:20;10.18;;;3.95;;
18455;SDS011;9357;49.900;8.208;2023-02-04T00:36:53;13.45;;;3.90;;
18455;SDS011;9357;49.900;8.208;2023-02-04T00:38:26;11.85;;;3.72;;
18455;SDS011;9357;49.900;8.208;2023-02-04T00:39:59;11.68;;;4.00;;
18455;SDS011;9357;49.900;8.208;2023-02-04T00:41:32;12.73;;;4.13;;
18455;SDS011;9357;49.900;8.208;2023-02-04T00:43:04;11.43;;;4.28;;
18455;SDS011;9357;49.900;8.208;2023-02-04T00:44:37;14.93;;;3.90;;
18455;SDS011;9357;49.900;8.208;2023-02-04T00:46:10;11.38;;;4.13;;
18455;SDS011;9357;49.900;8.208;2023-02-04T00:47:44;14.05;;;3.60;;
18455;SDS011;9357;49.900;8.208;2023-02-04T00:49:17;10.43;;;3.63;;
18455;SDS011;9357;49.900;8.208;2023-02-04T00:50:50;14.00;;;3.80;;
18455;SDS011;9357;49.900;8.208;2023-02-04T00:52:24;12.45;;;3.33;;
18455;SDS011;9357;49.900;8.208;2023-02-04T00:53:55;16.27;;;3.60;;
18455;SDS011;9357;49.900;8.208;2023-02-04T00:55:28;13.05;;;3.50;;
18455;SDS011;9357;49.900;8.208;2023-02-04T00:57:01;11.55;;;3.15;;
18455;SDS011;9357;49.900;8.208;2023-02-04T00:58:34;9.75;;;3.38;;
18455;SDS011;9357;49.900;8.208;2023-02-04T01:00:07;9.70;;;3.17;;
18455;SDS011;9357;49.900;8.208;2023-02-04T01:01:41;11.10;;;3.22;;
18455;SDS011;9357;49.900;8.208;2023-02-04T01:03:16;9.57;;;2.92;;
18455;SDS011;9357;49.900;8.208;2023-02-04T01:04:47;11.43;;;3.40;;
18455;SDS011;9357;49.900;8.208;2023-02-04T01:06:20;11.88;;;3.00;;
18455;SDS011;9357;49.900;8.208;2023-02-04T01:07:53;10.98;;;3.55;;
18455;SDS011;9357;49.900;8.208;2023-02-04T01:09:26;10.73;;;3.15;;
18455;SDS011;9357;49.900;8.208;2023-02-04T01:10:58;7.95;;;3.20;;
18455;SDS011;9357;49.900;8.208;2023-02-04T01:12:31;10.85;;;3.40;;
18455;SDS011;9357;49.900;8.208;2023-02-04T01:14:04;10.07;;;3.22;;
18455;SDS011;9357;49.900;8.208;2023-02-04T01:15:37;15.82;;;3.60;;
18455;SDS011;9357;49.900;8.208;2023-02-04T01:17:09;12.10;;;3.50;;
18455;SDS011;9357;49.900;8.208;2023-02-04T01:18:44;10.00;;;3.00;;
18455;SDS011;9357;49.900;8.208;2023-02-04T01:20:16;11.75;;;3.65;;
18455;SDS011;9357;49.900;8.208;2023-02-04T01:21:49;10.07;;;3.38;;
18455;SDS011;9357;49.900;8.208;2023-02-04T01:23:21;10.15;;;2.80;;
18455;SDS011;9357;49.900;8.208;2023-02-04T01:24:54;12.65;;;3.30;;
18455;SDS011;9357;49.900;8.208;2023-02-04T01:26:27;15.20;;;3.38;;
18455;SDS011;9357;49.900;8.208;2023-02-04T01:27:59;12.20;;;3.45;;
18455;SDS011;9357;49.900;8.208;2023-02-04T01:29:32;10.57;;;3.33;;
18455;SDS011;9357;49.900;8.208;2023-02-04T01:31:04;13.80;;;3.58;;
18455;SDS011;9357;49.900;8.208;2023-02-04T01:32:37;12.38;;;3.30;;
18455;SDS011;9357;49.900;8.208;2023-02-04T01:34:11;12.63;;;3.67;;
18455;SDS011;9357;49.900;8.208;2023-02-04T01:35:43;12.25;;;3.22;;
18455;SDS011;9357;49.900;8.208;2023-02-04T01:37:16;12.48;;;3.40;;
18455;SDS011;9357;49.900;8.208;2023-02-04T01:38:48;14.85;;;3.78;;
18455;SDS011;9357;49.900;8.208;2023-02-04T01:40:21;11.68;;;3.67;;
18455;SDS011;9357;49.900;8.208;2023-02-04T01:41:54;13.48;;;3.72;;
18455;SDS011;9357;49.900;8.208;2023-02-04T01:43:27;12.20;;;3.53;;
18455;SDS011;9357;49.900;8.208;2023-02-04T01:45:00;14.18;;;3.28;;
18455;SDS011;9357;49.900;8.208;2023-02-04T01:46:33;18.77;;;3.47;;
18455;SDS011;9357;49.900;8.208;2023-02-04T01:48:07;10.32;;;2.97;;
18455;SDS011;9357;49.900;8.208;2023-02-04T01:49:42;12.57;;;3.40;;
18455;SDS011;9357;49.900;8.208;2023-02-04T01:51:15;14.88;;;3.42;;
18455;SDS011;9357;49.900;8.208;2023-02-04T01:52:52;17.77;;;3.67;;
18455;SDS011;9357;49.900;8.208;2023-02-04T01:54:25;11.65;;;2.90;;
18455;SDS011;9357;49.900;8.208;2023-02-04T01:55:58;15.18;;;3.70;;
18455;SDS011;9357;49.900;8.208;2023-02-04T01:57:31;12.77;;;3.50;;
18455;SDS011;9357;49.900;8.208;2023-02-04T01:59:08;10.93;;;3.10;;
18455;SDS011;9357;49.900;8.208;2023-02-04T02:00:43;13.98;;;4.10;;
18455;SDS011;9357;49.900;8.208;2023-02-04T02:04:12;14.27;;;3.67;;
18455;SDS011;9357;49.900;8.208;2023-02-04T02:05:49;16.00;;;3.20;;
18455;SDS011;9357;49.900;8.208;2023-02-04T02:07:24;11.13;;;3.50;;
18455;SDS011;9357;49.900;8.208;2023-02-04T02:08:56;11.95;;;3.50;;
18455;SDS011;9357;49.900;8.208;2023-02-04T02:10:29;12.80;;;2.97;;
18455;SDS011;9357;49.900;8.208;2023-02-04T02:12:03;11.27;;;3.30;;
18455;SDS011;9357;49.900;8.208;2023-02-04T02:13:35;10.70;;;3.42;;
18455;SDS011;9357;49.900;8.208;2023-02-04T02:15:08;12.85;;;4.00;;
18455;SDS011;9357;49.900;8.208;2023-02-04T02:16:41;10.85;;;3.35;;
18455;SDS011;9357;49.900;8.208;2023-02-04T02:18:14;12.05;;;3.20;;
18455;SDS011;9357;49.900;8.208;2023-02-04T02:19:47;12.35;;;3.05;;
18455;SDS011;9357;49.900;8.208;2023-02-04T02:21:23;15.95;;;3.20;;
18455;SDS011;9357;49.900;8.208;2023-02-04T02:23:04;14.13;;;3.67;;
18455;SDS011;9357;49.900;8.208;2023-02-04T02:24:45;11.57;;;3.47;;
18455;SDS011;9357;49.900;8.208;2023-02-04T02:26:18;14.75;;;3.45;;
18455;SDS011;9357;49.900;8.208;2023-02-04T02:27:52;8.70;;;2.92;;
18455;SDS011;9357;49.900;8.208;2023-02-04T02:29:26;10.35;;;3.33;;
18455;SDS011;9357;49.900;8.208;2023-02-04T02:30:59;9.93;;;3.33;;
18455;SDS011;9357;49.900;8.208;2023-02-04T02:32:32;13.02;;;3.63;;
18455;SDS011;9357;49.900;8.208;2023-02-04T02:34:05;10.88;;;3.85;;
18455;SDS011;9357;49.900;8.208;2023-02-04T02:35:37;14.27;;;3.85;;
18455;SDS011;9357;49.900;8.208;2023-02-04T02:37:09;13.95;;;3.67;;
18455;SDS011;9357;49.900;8.208;2023-02-04T02:38:42;15.57;;;3.92;;
18455;SDS011;9357;49.900;8.208;2023-02-04T02:40:17;10.40;;;3.30;;
18455;SDS011;9357;49.900;8.208;2023-02-04T02:41:50;11.48;;;4.18;;
18455;SDS011;9357;49.900;8.208;2023-02-04T02:43:23;10.30;;;4.00;;
18455;SDS011;9357;49.900;8.208;2023-02-04T02:44:57;15.75;;;4.20;;
18455;SDS011;9357;49.900;8.208;2023-02-04T02:46:30;11.05;;;4.32;;
18455;SDS011;9357;49.900;8.208;2023-02-04T02:48:04;15.07;;;4.22;;
18455;SDS011;9357;49.900;8.208;2023-02-04T02:49:35;15.70;;;3.88;;
18455;SDS011;9357;49.900;8.208;2023-02-04T02:51:10;14.00;;;4.45;;
18455;SDS011;9357;49.900;8.208;2023-02-04T02:52:43;17.70;;;4.55;;
18455;SDS011;9357;49.900;8.208;2023-02-04T02:54:18;13.65;;;3.90;;
18455;SDS011;9357;49.900;8.208;2023-02-04T02:55:55;14.30;;;4.22;;
18455;SDS011;9357;49.900;8.208;2023-02-04T02:57:28;15.98;;;4.22;;
18455;SDS011;9357;49.900;8.208;2023-02-04T02:59:11;11.98;;;4.10;;
18455;SDS011;9357;49.900;8.208;2023-02-04T03:00:44;15.55;;;4.28;;
18455;SDS011;9357;49.900;8.208;2023-02-04T03:02:18;16.45;;;4.30;;
18455;SDS011;9357;49.900;8.208;2023-02-04T03:03:53;13.18;;;4.20;;
18455;SDS011;9357;49.900;8.208;2023-02-04T03:05:25;11.98;;;4.05;;
18455;SDS011;9357;49.900;8.208;2023-02-04T03:07:01;14.20;;;4.10;;
18455;SDS011;9357;49.900;8.208;2023-02-04T03:08:34;14.68;;;4.35;;
18455;SDS011;9357;49.900;8.208;2023-02-04T03:10:07;17.58;;;4.63;;
18455;SDS011;9357;49.900;8.208;2023-02-04T03:11:42;13.98;;;4.57;;
18455;SDS011;9357;49.900;8.208;2023-02-04T03:13:15;12.65;;;4.18;;
18455;SDS011;9357;49.900;8.208;2023-02-04T03:14:49;16.33;;;4.47;;
18455;SDS011;9357;49.900;8.208;2023-02-04T03:16:21;14.45;;;3.97;;
18455;SDS011;9357;49.900;8.208;2023-02-04T03:17:54;10.48;;;4.50;;
18455;SDS011;9357;49.900;8.208;2023-02-04T03:19:27;14.10;;;4.30;;
18455;SDS011;9357;49.900;8.208;2023-02-04T03:21:00;15.63;;;4.72;;
18455;SDS011;9357;49.900;8.208;2023-02-04T03:22:35;14.90;;;4.63;;
18455;SDS011;9357;49.900;8.208;2023-02-04T03:24:08;14.10;;;4.13;;
18455;SDS011;9357;49.900;8.208;2023-02-04T03:25:41;15.35;;;4.07;;
18455;SDS011;9357;49.900;8.208;2023-02-04T03:27:16;14.45;;;4.60;;
18455;SDS011;9357;49.900;8.208;2023-02-04T03:28:48;15.73;;;4.22;;
18455;SDS011;9357;49.900;8.208;2023-02-04T03:30:21;13.73;;;4.20;;
18455;SDS011;9357;49.900;8.208;2023-02-04T03:31:54;14.95;;;4.43;;
18455;SDS011;9357;49.900;8.208;2023-02-04T03:33:27;15.85;;;4.72;;
18455;SDS011;9357;49.900;8.208;2023-02-04T03:35:01;11.18;;;4.53;;
18455;SDS011;9357;49.900;8.208;2023-02-04T03:36:34;14.40;;;4.90;;
18455;SDS011;9357;49.900;8.208;2023-02-04T03:38:06;10.15;;;4.68;;
18455;SDS011;9357;49.900;8.208;2023-02-04T03:39:39;14.25;;;4.55;;
18455;SDS011;9357;49.900;8.208;2023-02-04T03:41:12;14.63;;;5.10;;
18455;SDS011;9357;49.900;8.208;2023-02-04T03:42:46;13.05;;;4.70;;
18455;SDS011;9357;49.900;8.208;2023-02-04T03:44:18;15.85;;;5.18;;
18455;SDS011;9357;49.900;8.208;2023-02-04T03:45:52;14.55;;;4.65;;
18455;SDS011;9357;49.900;8.208;2023-02-04T03:47:25;11.65;;;4.50;;
18455;SDS011;9357;49.900;8.208;2023-02-04T03:48:57;15.60;;;4.57;;
18455;SDS011;9357;49.900;8.208;2023-02-04T03:50:29;14.10;;;4.38;;
18455;SDS011;9357;49.900;8.208;2023-02-04T03:52:03;14.45;;;4.70;;
18455;SDS011;9357;49.900;8.208;2023-02-04T03:53:36;12.80;;;4.35;;
18455;SDS011;9357;49.900;8.208;2023-02-04T03:55:08;14.05;;;4.45;;
18455;SDS011;9357;49.900;8.208;2023-02-04T03:56:41;14.18;;;4.07;;
18455;SDS011;9357;49.900;8.208;2023-02-04T03:58:15;15.18;;;4.88;;
18455;SDS011;9357;49.900;8.208;2023-02-04T03:59:48;11.32;;;4.65;;
18455;SDS011;9357;49.900;8.208;2023-02-04T04:01:21;12.57;;;4.60;;
18455;SDS011;9357;49.900;8.208;2023-02-04T04:02:53;12.77;;;4.75;;
18455;SDS011;9357;49.900;8.208;2023-02-04T04:04:27;15.60;;;4.82;;
18455;SDS011;9357;49.900;8.208;2023-02-04T04:06:00;17.48;;;5.38;;
18455;SDS011;9357;49.900;8.208;2023-02-04T04:07:32;19.88;;;5.18;;
18455;SDS011;9357;49.900;8.208;2023-02-04T04:09:04;18.40;;;5.10;;
18455;SDS011;9357;49.900;8.208;2023-02-04T04:10:37;15.95;;;5.00;;
18455;SDS011;9357;49.900;8.208;2023-02-04T04:12:12;13.65;;;4.93;;
18455;SDS011;9357;49.900;8.208;2023-02-04T04:13:46;14.55;;;4.68;;
18455;SDS011;9357;49.900;8.208;2023-02-04T04:15:18;17.52;;;4.97;;
18455;SDS011;9357;49.900;8.208;2023-02-04T04:16:50;13.20;;;4.63;;
18455;SDS011;9357;49.900;8.208;2023-02-04T04:18:23;15.70;;;5.15;;
18455;SDS011;9357;49.900;8.208;2023-02-04T04:19:56;18.02;;;4.95;;
18455;SDS011;9357;49.900;8.208;2023-02-04T04:21:28;12.35;;;4.65;;
18455;SDS011;9357;49.900;8.208;2023-02-04T04:23:01;15.30;;;4.90;;
18455;SDS011;9357;49.900;8.208;2023-02-04T04:24:34;13.55;;;5.35;;
18455;SDS011;9357;49.900;8.208;2023-02-04T04:26:06;13.50;;;4.45;;
18455;SDS011;9357;49.900;8.208;2023-02-04T04:27:39;13.95;;;5.32;;
18455;SDS011;9357;49.900;8.208;2023-02-04T04:29:13;10.23;;;4.65;;
18455;SDS011;9357;49.900;8.208;2023-02-04T04:30:46;11.55;;;4.60;;
18455;SDS011;9357;49.900;8.208;2023-02-04T04:32:19;10.95;;;4.35;;
18455;SDS011;9357;49.900;8.208;2023-02-04T04:33:51;15.00;;;4.95;;
18455;SDS011;9357;49.900;8.208;2023-02-04T04:35:24;12.88;;;4.55;;
18455;SDS011;9357;49.900;8.208;2023-02-04T04:36:56;12.30;;;4.43;;
18455;SDS011;9357;49.900;8.208;2023-02-04T04:38:29;9.15;;;4.30;;
18455;SDS011;9357;49.900;8.208;2023-02-04T04:40:01;13.32;;;4.80;;
18455;SDS011;9357;49.900;8.208;2023-02-04T04:41:33;13.57;;;4.78;;
18455;SDS011;9357;49.900;8.208;2023-02-04T04:43:06;14.15;;;5.22;;
18455;SDS011;9357;49.900;8.208;2023-02-04T04:44:40;10.77;;;4.78;;
18455;SDS011;9357;49.900;8.208;2023-02-04T04:46:12;15.32;;;5.15;;
18455;SDS011;9357;49.900;8.208;2023-02-04T04:47:45;10.93;;;4.60;;
18455;SDS011;9357;49.900;8.208;2023-02-04T04:49:16;9.80;;;4.43;;
18455;SDS011;9357;49.900;8.208;2023-02-04T04:50:49;13.52;;;4.70;;
18455;SDS011;9357;49.900;8.208;2023-02-04T04:52:22;14.27;;;4.70;;
18455;SDS011;9357;49.900;8.208;2023-02-04T04:53:55;18.42;;;5.05;;
18455;SDS011;9357;49.900;8.208;2023-02-04T04:55:28;11.48;;;5.07;;
18455;SDS011;9357;49.900;8.208;2023-02-04T04:57:00;15.73;;;4.75;;
18455;SDS011;9357;49.900;8.208;2023-02-04T04:58:33;13.13;;;4.28;;
18455;SDS011;9357;49.900;8.208;2023-02-04T05:00:09;15.02;;;4.57;;
18455;SDS011;9357;49.900;8.208;2023-02-04T05:01:46;14.60;;;5.18;;
18455;SDS011;9357;49.900;8.208;2023-02-04T05:03:19;17.00;;;5.10;;
18455;SDS011;9357;49.900;8.208;2023-02-04T05:04:51;17.10;;;4.95;;
18455;SDS011;9357;49.900;8.208;2023-02-04T05:06:23;15.43;;;5.03;;
18455;SDS011;9357;49.900;8.208;2023-02-04T05:07:56;14.60;;;5.30;;
18455;SDS011;9357;49.900;8.208;2023-02-04T05:09:29;19.63;;;5.18;;
18455;SDS011;9357;49.900;8.208;2023-02-04T05:11:01;18.67;;;5.25;;
18455;SDS011;9357;49.900;8.208;2023-02-04T05:12:34;15.35;;;4.75;;
18455;SDS011;9357;49.900;8.208;2023-02-04T05:14:06;20.08;;;5.38;;
18455;SDS011;9357;49.900;8.208;2023-02-04T05:15:40;15.48;;;5.10;;
18455;SDS011;9357;49.900;8.208;2023-02-04T05:17:13;19.70;;;4.82;;
18455;SDS011;9357;49.900;8.208;2023-02-04T05:18:46;14.20;;;4.88;;
18455;SDS011;9357;49.900;8.208;2023-02-04T05:20:18;16.08;;;5.18;;
18455;SDS011;9357;49.900;8.208;2023-02-04T05:21:51;19.13;;;4.63;;
18455;SDS011;9357;49.900;8.208;2023-02-04T05:23:24;19.77;;;5.03;;
18455;SDS011;9357;49.900;8.208;2023-02-04T05:24:55;20.50;;;5.53;;
18455;SDS011;9357;49.900;8.208;2023-02-04T05:26:28;22.05;;;5.10;;
18455;SDS011;9357;49.900;8.208;2023-02-04T05:28:01;20.73;;;5.20;;
18455;SDS011;9357;49.900;8.208;2023-02-04T05:29:34;19.02;;;5.15;;
18455;SDS011;9357;49.900;8.208;2023-02-04T05:31:07;17.42;;;5.30;;
18455;SDS011;9357;49.900;8.208;2023-02-04T05:32:40;18.75;;;4.65;;
18455;SDS011;9357;49.900;8.208;2023-02-04T05:34:13;20.40;;;4.88;;
18455;SDS011;9357;49.900;8.208;2023-02-04T05:35:45;18.45;;;5.35;;
18455;SDS011;9357;49.900;8.208;2023-02-04T05:37:20;17.20;;;4.60;;
18455;SDS011;9357;49.900;8.208;2023-02-04T05:38:51;15.70;;;4.82;;
18455;SDS011;9357;49.900;8.208;2023-02-04T05:40:24;19.73;;;4.65;;
18455;SDS011;9357;49.900;8.208;2023-02-04T05:41:57;16.83;;;5.20;;
18455;SDS011;9357;49.900;8.208;2023-02-04T05:43:30;15.23;;;4.55;;
18455;SDS011;9357;49.900;8.208;2023-02-04T05:45:01;17.65;;;5.22;;
18455;SDS011;9357;49.900;8.208;2023-02-04T05:46:36;21.85;;;5.28;;
18455;SDS011;9357;49.900;8.208;2023-02-04T05:48:09;17.90;;;5.40;;
18455;SDS011;9357;49.900;8.208;2023-02-04T05:49:42;17.98;;;5.15;;
18455;SDS011;9357;49.900;8.208;2023-02-04T05:51:14;15.48;;;5.13;;
18455;SDS011;9357;49.900;8.208;2023-02-04T05:52:47;19.55;;;5.57;;
18455;SDS011;9357;49.900;8.208;2023-02-04T05:54:20;24.48;;;5.85;;
18455;SDS011;9357;49.900;8.208;2023-02-04T05:55:52;20.02;;;5.45;;
18455;SDS011;9357;49.900;8.208;2023-02-04T05:57:25;19.35;;;4.70;;
18455;SDS011;9357;49.900;8.208;2023-02-04T05:58:57;16.40;;;4.65;;
18455;SDS011;9357;49.900;8.208;2023-02-04T06:00:30;17.13;;;5.15;;
18455;SDS011;9357;49.900;8.208;2023-02-04T06:02:04;19.05;;;5.47;;
18455;SDS011;9357;49.900;8.208;2023-02-04T06:03:37;21.17;;;5.70;;
18455;SDS011;9357;49.900;8.208;2023-02-04T06:05:10;14.75;;;4.82;;
18455;SDS011;9357;49.900;8.208;2023-02-04T06:06:42;18.48;;;5.22;;
18455;SDS011;9357;49.900;8.208;2023-02-04T06:08:15;20.17;;;5.18;;
18455;SDS011;9357;49.900;8.208;2023-02-04T06:09:48;17.88;;;5.28;;
18455;SDS011;9357;49.900;8.208;2023-02-04T06:11:21;20.45;;;5.10;;
18455;SDS011;9357;49.900;8.208;2023-02-04T06:12:53;16.52;;;5.15;;
18455;SDS011;9357;49.900;8.208;2023-02-04T06:14:26;16.50;;;4.80;;
18455;SDS011;9357;49.900;8.208;2023-02-04T06:15:59;19.80;;;5.47;;
18455;SDS011;9357;49.900;8.208;2023-02-04T06:17:32;17.02;;;5.20;;
18455;SDS011;9357;49.900;8.208;2023-02-04T06:19:04;17.17;;;5.28;;
18455;SDS011;9357;49.900;8.208;2023-02-04T06:20:36;21.90;;;5.60;;
18455;SDS011;9357;49.900;8.208;2023-02-04T06:22:09;17.77;;;5.05;;
18455;SDS011;9357;49.900;8.208;2023-02-04T06:23:42;16.77;;;4.82;;
18455;SDS011;9357;49.900;8.208;2023-02-04T06:25:15;20.17;;;5.05;;
18455;SDS011;9357;49.900;8.208;2023-02-04T06:26:47;15.50;;;4.97;;
18455;SDS011;9357;49.900;8.208;2023-02-04T06:28:20;16.02;;;5.43;;
18455;SDS011;9357;49.900;8.208;2023-02-04T06:29:52;19.48;;;5.53;;
18455;SDS011;9357;49.900;8.208;2023-02-04T06:31:27;19.50;;;5.90;;
18455;SDS011;9357;49.900;8.208;2023-02-04T06:33:01;18.20;;;5.03;;
18455;SDS011;9357;49.900;8.208;2023-02-04T06:34:34;21.10;;;5.57;;
18455;SDS011;9357;49.900;8.208;2023-02-04T06:36:07;16.00;;;5.30;;
18455;SDS011;9357;49.900;8.208;2023-02-04T06:37:39;16.70;;;5.50;;
18455;SDS011;9357;49.900;8.208;2023-02-04T06:39:12;17.50;;;5.53;;
18455;SDS011;9357;49.900;8.208;2023-02-04T06:40:46;18.80;;;5.15;;
18455;SDS011;9357;49.900;8.208;2023-02-04T06:42:19;15.75;;;5.20;;
18455;SDS011;9357;49.900;8.208;2023-02-04T06:43:52;18.80;;;5.65;;
18455;SDS011;9357;49.900;8.208;2023-02-04T06:45:25;26.10;;;5.80;;
18455;SDS011;9357;49.900;8.208;2023-02-04T06:46:57;18.52;;;5.80;;
18455;SDS011;9357;49.900;8.208;2023-02-04T06:48:31;17.10;;;5.65;;
18455;SDS011;9357;49.900;8.208;2023-02-04T06:50:04;17.35;;;5.68;;
18455;SDS011;9357;49.900;8.208;2023-02-04T06:51:37;22.88;;;5.25;;
18455;SDS011;9357;49.900;8.208;2023-02-04T06:53:10;20.23;;;6.20;;
18455;SDS011;9357;49.900;8.208;2023-02-04T06:54:43;17.90;;;5.57;;
18455;SDS011;9357;49.900;8.208;2023-02-04T06:56:15;16.48;;;5.38;;
18455;SDS011;9357;49.900;8.208;2023-02-04T06:57:48;19.33;;;5.18;;
18455;SDS011;9357;49.900;8.208;2023-02-04T06:59:21;18.08;;;5.03;;
18455;SDS011;9357;49.900;8.208;2023-02-04T07:00:55;18.42;;;4.72;;
18455;SDS011;9357;49.900;8.208;2023-02-04T07:02:28;16.65;;;5.03;;
18455;SDS011;9357;49.900;8.208;2023-02-04T07:04:02;19.73;;;4.70;;
18455;SDS011;9357;49.900;8.208;2023-02-04T07:05:35;21.88;;;5.30;;
18455;SDS011;9357;49.900;8.208;2023-02-04T07:07:08;15.80;;;4.70;;
18455;SDS011;9357;49.900;8.208;2023-02-04T07:08:40;18.58;;;5.13;;
18455;SDS011;9357;49.900;8.208;2023-02-04T07:10:12;16.42;;;5.25;;
18455;SDS011;9357;49.900;8.208;2023-02-04T07:11:46;18.30;;;5.50;;
18455;SDS011;9357;49.900;8.208;2023-02-04T07:13:19;22.58;;;5.38;;
18455;SDS011;9357;49.900;8.208;2023-02-04T07:14:52;22.73;;;5.43;;
18455;SDS011;9357;49.900;8.208;2023-02-04T07:16:24;22.02;;;5.25;;
18455;SDS011;9357;49.900;8.208;2023-02-04T07:17:57;19.27;;;5.22;;
18455;SDS011;9357;49.900;8.208;2023-02-04T07:19:31;19.90;;;5.22;;
18455;SDS011;9357;49.900;8.208;2023-02-04T07:21:05;17.25;;;5.82;;
18455;SDS011;9357;49.900;8.208;2023-02-04T07:22:38;19.33;;;5.72;;
18455;SDS011;9357;49.900;8.208;2023-02-04T07:24:11;22.27;;;6.18;;
18455;SDS011;9357;49.900;8.208;2023-02-04T07:25:43;21.27;;;5.88;;
18455;SDS011;9357;49.900;8.208;2023-02-04T07:27:16;18.70;;;5.70;;
18455;SDS011;9357;49.900;8.208;2023-02-04T07:28:49;20.58;;;5.32;;
18455;SDS011;9357;49.900;8.208;2023-02-04T07:30:21;16.38;;;5.70;;
18455;SDS011;9357;49.900;8.208;2023-02-04T07:31:54;16.88;;;5.53;;
18455;SDS011;9357;49.900;8.208;2023-02-04T07:33:26;22.15;;;5.70;;
18455;SDS011;9357;49.900;8.208;2023-02-04T07:35:00;22.88;;;5.50;;
18455;SDS011;9357;49.900;8.208;2023-02-04T07:36:33;17.17;;;5.20;;
18455;SDS011;9357;49.900;8.208;2023-02-04T07:38:06;19.70;;;5.63;;
18455;SDS011;9357;49.900;8.208;2023-02-04T07:39:39;15.43;;;5.65;;
18455;SDS011;9357;49.900;8.208;2023-02-04T07:41:12;14.90;;;5.47;;
18455;SDS011;9357;49.900;8.208;2023-02-04T07:42:45;21.15;;;5.75;;
18455;SDS011;9357;49.900;8.208;2023-02-04T07:44:17;16.42;;;5.15;;
18455;SDS011;9357;49.900;8.208;2023-02-04T07:45:50;21.67;;;5.85;;
18455;SDS011;9357;49.900;8.208;2023-02-04T07:47:23;18.58;;;5.72;;
18455;SDS011;9357;49.900;8.208;2023-02-04T07:48:55;18.80;;;6.07;;
18455;SDS011;9357;49.900;8.208;2023-02-04T07:50:30;18.40;;;5.07;;
18455;SDS011;9357;49.900;8.208;2023-02-04T07:52:03;15.32;;;5.03;;
18455;SDS011;9357;49.900;8.208;2023-02-04T07:53:36;15.10;;;5.38;;
18455;SDS011;9357;49.900;8.208;2023-02-04T07:55:08;17.17;;;5.45;;
18455;SDS011;9357;49.900;8.208;2023-02-04T07:56:41;19.02;;;5.13;;
18455;SDS011;9357;49.900;8.208;2023-02-04T07:58:14;22.52;;;5.97;;
18455;SDS011;9357;49.900;8.208;2023-02-04T07:59:47;19.15;;;5.68;;
18455;SDS011;9357;49.900;8.208;2023-02-04T08:01:19;21.23;;;5.53;;
18455;SDS011;9357;49.900;8.208;2023-02-04T08:02:52;18.00;;;5.68;;
18455;SDS011;9357;49.900;8.208;2023-02-04T08:04:25;21.42;;;6.22;;
18455;SDS011;9357;49.900;8.208;2023-02-04T08:05:59;17.95;;;5.18;;
18455;SDS011;9357;49.900;8.208;2023-02-04T08:07:32;24.60;;;5.97;;
18455;SDS011;9357;49.900;8.208;2023-02-04T08:09:05;19.92;;;5.50;;
18455;SDS011;9357;49.900;8.208;2023-02-04T08:10:37;28.10;;;5.70;;
18455;SDS011;9357;49.900;8.208;2023-02-04T08:12:10;17.85;;;5.90;;
18455;SDS011;9357;49.900;8.208;2023-02-04T08:13:43;20.13;;;6.25;;
18455;SDS011;9357;49.900;8.208;2023-02-04T08:15:16;16.70;;;5.25;;
18455;SDS011;9357;49.900;8.208;2023-02-04T08:16:48;21.17;;;6.07;;
18455;SDS011;9357;49.900;8.208;2023-02-04T08:18:21;19.90;;;5.65;;
18455;SDS011;9357;49.900;8.208;2023-02-04T08:19:55;18.02;;;5.82;;
18455;SDS011;9357;49.900;8.208;2023-02-04T08:21:29;24.23;;;6.28;;
18455;SDS011;9357;49.900;8.208;2023-02-04T08:23:01;22.67;;;5.97;;
18455;SDS011;9357;49.900;8.208;2023-02-04T08:24:33;25.67;;;5.75;;
18455;SDS011;9357;49.900;8.208;2023-02-04T08:26:07;22.92;;;6.55;;
18455;SDS011;9357;49.900;8.208;2023-02-04T08:27:41;20.38;;;5.88;;
18455;SDS011;9357;49.900;8.208;2023-02-04T08:29:14;26.40;;;6.65;;
18455;SDS011;9357;49.900;8.208;2023-02-04T08:30:47;21.40;;;7.25;;
18455;SDS011;9357;49.900;8.208;2023-02-04T08:32:19;17.98;;;6.53;;
18455;SDS011;9357;49.900;8.208;2023-02-04T08:33:52;22.52;;;6.60;;
18455;SDS011;9357;49.900;8.208;2023-02-04T08:35:25;19.60;;;6.25;;
18455;SDS011;9357;49.900;8.208;2023-02-04T08:36:59;19.63;;;6.75;;
18455;SDS011;9357;49.900;8.208;2023-02-04T08:38:32;24.10;;;7.38;;
18455;SDS011;9357;49.900;8.208;2023-02-04T08:40:05;21.85;;;6.78;;
18455;SDS011;9357;49.900;8.208;2023-02-04T08:41:38;22.63;;;7.05;;
18455;SDS011;9357;49.900;8.208;2023-02-04T08:43:10;21.63;;;7.22;;
18455;SDS011;9357;49.900;8.208;2023-02-04T08:44:43;24.40;;;6.63;;
18455;SDS011;9357;49.900;8.208;2023-02-04T08:46:16;132.55;;;18.52;;
18455;SDS011;9357;49.900;8.208;2023-02-04T08:47:49;53.25;;;10.18;;
18455;SDS011;9357;49.900;8.208;2023-02-04T08:49:21;30.13;;;6.03;;
18455;SDS011;9357;49.900;8.208;2023-02-04T08:50:54;28.10;;;5.82;;
18455;SDS011;9357;49.900;8.208;2023-02-04T08:52:28;19.35;;;6.13;;
18455;SDS011;9357;49.900;8.208;2023-02-04T08:54:01;30.52;;;6.95;;
18455;SDS011;9357;49.900;8.208;2023-02-04T08:55:34;20.63;;;6.65;;
18455;SDS011;9357;49.900;8.208;2023-02-04T08:57:06;32.90;;;7.78;;
18455;SDS011;9357;49.900;8.208;2023-02-04T08:58:39;19.95;;;6.95;;
18455;SDS011;9357;49.900;8.208;2023-02-04T09:00:12;24.83;;;7.05;;
18455;SDS011;9357;49.900;8.208;2023-02-04T09:01:46;25.05;;;6.90;;
18455;SDS011;9357;49.900;8.208;2023-02-04T09:03:21;27.52;;;6.75;;
18455;SDS011;9357;49.900;8.208;2023-02-04T09:04:54;31.15;;;7.20;;
18455;SDS011;9357;49.900;8.208;2023-02-04T09:06:26;23.30;;;6.28;;
18455;SDS011;9357;49.900;8.208;2023-02-04T09:08:01;21.77;;;6.10;;
18455;SDS011;9357;49.900;8.208;2023-02-04T09:09:33;20.02;;;6.10;;
18455;SDS011;9357;49.900;8.208;2023-02-04T09:11:06;22.85;;;6.13;;
18455;SDS011;9357;49.900;8.208;2023-02-04T09:12:40;19.70;;;5.55;;
18455;SDS011;9357;49.900;8.208;2023-02-04T09:14:13;20.08;;;5.90;;
18455;SDS011;9357;49.900;8.208;2023-02-04T09:15:47;19.30;;;5.30;;
18455;SDS011;9357;49.900;8.208;2023-02-04T09:17:19;20.08;;;5.85;;
18455;SDS011;9357;49.900;8.208;2023-02-04T09:18:52;18.80;;;5.60;;
18455;SDS011;9357;49.900;8.208;2023-02-04T09:20:25;18.80;;;5.60;;
18455;SDS011;9357;49.900;8.208;2023-02-04T09:21:59;22.10;;;5.60;;
18455;SDS011;9357;49.900;8.208;2023-02-04T09:23:33;19.80;;;5.85;;